GMTT/TNG METAR and TAF weather

Enter ICAO airport designator
Station Type Date Time Source
GMTT METAR 2019/10/16 20:00 UTC NOAA

GMTT 162000Z VRB02KT CAVOK 18/11 Q1019 NOSIG


Station Type Date Time Source
GMTT Decoded METAR 2019/10/16 20:00 UTC NOAA

Tanger Aerodrome , Morocco (GMTT) 35-44N 005-54W 21M
Oct 16, 2019 - 04:00 PM EDT / 2019.10.16 2000 UTC
Wind: Variable at 2 MPH (2 KT):0
Visibility: greater than 7 mile(s):0
Temperature: 64 F (18 C)
Dew Point: 51 F (11 C)
Relative Humidity: 63%
Pressure (altimeter): 30.09 in. Hg (1019 hPa)
ob: GMTT 162000Z VRB02KT CAVOK 18/11 Q1019 NOSIG
cycle: 20

Station Type Date Time Source
GMTT TAF 2019/10/16 18:18 UTC NOAA

TAF GMTT 161700Z 1618/1724 34009KT 9999 FEW016 PROB30
TEMPO 1700/1706 4000 BR

Example: see airport list